Time;durP1;ratioP1;P1;durP2;ratioP2;P2;SDS_P1;SDS_P2;PMS_P1;PMS_P2;Temp;Humidity;BMP_temperature;BMP_pressure;BME280_temperature;BME280_humidity;BME280_pressure;Samples;Min_cycle;Max_cycle;Signal;HPM_P1;HPM_P2
2021/08/05 00:01:32;;;;;;;5.83;5.33;;;15.30;99.90;;;;;;6239193;22;20211;-93
2021/08/05 00:03:59;;;;;;;6.63;6.03;;;15.40;99.90;;;;;;6267688;22;20166;-92
2021/08/05 00:06:32;;;;;;;6.40;4.73;;;15.40;99.90;;;;;;6236199;22;20166;-91
2021/08/05 00:09:03;;;;;;;5.10;4.70;;;15.40;99.90;;;;;;6239876;22;20393;-92
2021/08/05 00:11:33;;;;;;;6.80;6.10;;;15.50;99.90;;;;;;6264370;22;20440;-91
2021/08/05 00:13:59;;;;;;;5.70;5.20;;;15.50;99.90;;;;;;6238389;22;20387;-92
2021/08/05 00:16:27;;;;;;;8.83;5.60;;;15.50;99.90;;;;;;6267404;22;20389;-92
2021/08/05 00:18:56;;;;;;;5.90;5.30;;;15.50;99.90;;;;;;6240361;22;20192;-92
2021/08/05 00:21:24;;;;;;;5.83;5.10;;;15.50;99.90;;;;;;6239400;22;20404;-92
2021/08/05 00:23:53;;;;;;;5.30;4.90;;;15.40;99.90;;;;;;6250778;22;20417;-91
2021/08/05 00:26:19;;;;;;;6.73;5.43;;;15.40;99.90;;;;;;6287402;22;20385;-91
2021/08/05 00:28:47;;;;;;;6.27;5.00;;;15.50;99.90;;;;;;6250566;22;20407;-92
2021/08/05 00:31:26;;;;;;;6.83;5.67;;;15.50;99.90;;;;;;6240110;22;20524;-92
2021/08/05 00:34:26;;;;;;;8.57;6.60;;;15.50;99.90;;;;;;6241293;22;20687;-93
2021/08/05 00:40:47;;;;;;;5.50;4.97;;;15.40;99.90;;;;;;6251121;22;20400;-93
2021/08/05 00:43:13;;;;;;;6.23;5.63;;;15.40;99.90;;;;;;6241413;22;20439;-90
2021/08/05 00:45:44;;;;;;;9.40;6.83;;;15.30;99.90;;;;;;6240990;22;20875;-91
2021/08/05 00:48:10;;;;;;;6.20;5.70;;;15.30;99.90;;;;;;6240818;22;20485;-90
2021/08/05 00:50:36;;;;;;;6.00;5.50;;;15.30;99.90;;;;;;6240731;22;20447;-92
2021/08/05 00:53:02;;;;;;;6.40;5.67;;;15.30;99.90;;;;;;6239819;22;20170;-92
2021/08/05 00:55:30;;;;;;;6.50;5.73;;;15.30;99.90;;;;;;6240520;22;20257;-92
2021/08/05 00:58:00;;;;;;;6.70;5.60;;;15.20;99.90;;;;;;6240210;22;20863;-91
2021/08/05 01:00:26;;;;;;;8.13;5.80;;;15.30;99.90;;;;;;6238681;22;20397;-90
2021/08/05 01:03:31;;;;;;;6.80;5.50;;;15.40;99.90;;;;;;6268035;22;20723;-91
2021/08/05 01:06:22;;;;;;;7.13;5.83;;;15.30;99.90;;;;;;6216981;22;20425;-92
2021/08/05 01:09:05;;;;;;;5.63;5.13;;;15.20;99.90;;;;;;6238426;22;20468;-91
2021/08/05 01:11:44;;;;;;;6.23;5.60;;;15.10;99.90;;;;;;6238127;22;20445;-91
2021/08/05 01:14:17;;;;;;;6.20;5.60;;;15.10;99.90;;;;;;6238697;22;20385;-92
2021/08/05 01:16:47;;;;;;;7.60;5.47;;;15.20;99.90;;;;;;6266197;22;20404;-92
2021/08/05 01:19:33;;;;;;;5.70;5.10;;;15.10;99.90;;;;;;6239691;22;20384;-92
2021/08/05 01:22:17;;;;;;;5.23;4.83;;;15.20;99.90;;;;;;6233103;22;20396;-92
2021/08/05 01:24:53;;;;;;;7.33;5.77;;;15.20;99.90;;;;;;6238175;22;20392;-91
2021/08/05 01:27:29;;;;;;;6.40;5.80;;;15.20;99.90;;;;;;6238773;22;20424;-91
2021/08/05 01:30:10;;;;;;;;;;;;;;;;;;;;;
2021/08/05 01:32:39;;;;;;;5.63;5.13;;;15.20;99.90;;;;;;6261736;22;20477;-91
2021/08/05 01:35:09;;;;;;;5.60;5.10;;;15.20;99.90;;;;;;6237013;22;20415;-92
2021/08/05 01:37:38;;;;;;;6.17;5.60;;;15.30;99.90;;;;;;6239633;22;20381;-92
2021/08/05 01:40:05;;;;;;;5.43;4.93;;;15.20;99.90;;;;;;6234902;22;20625;-91
2021/08/05 01:42:38;;;;;;;5.70;5.20;;;15.30;99.90;;;;;;6229023;22;20389;-91
2021/08/05 01:45:07;;;;;;;5.30;4.80;;;15.30;99.90;;;;;;6261302;22;20432;-91
2021/08/05 01:47:38;;;;;;;6.27;5.50;;;15.30;99.90;;;;;;6237444;22;20468;-92
2021/08/05 01:50:16;;;;;;;5.87;4.93;;;15.20;99.90;;;;;;6228166;22;20448;-92
2021/08/05 01:52:43;;;;;;;6.07;5.10;;;15.20;99.90;;;;;;6252433;22;20392;-91
2021/08/05 01:55:11;;;;;;;6.80;5.20;;;15.10;99.90;;;;;;6239630;22;21306;-91
2021/08/05 01:57:37;;;;;;;8.63;5.60;;;15.10;99.90;;;;;;6189616;22;20401;-91
2021/08/05 02:00:08;;;;;;;6.80;6.10;;;15.10;99.90;;;;;;6237881;22;20846;-91
2021/08/05 02:02:37;;;;;;;6.87;5.77;;;15.00;99.90;;;;;;6239029;22;20166;-91
2021/08/05 02:05:21;;;;;;;6.77;4.97;;;15.00;99.90;;;;;;6238718;22;20401;-91
2021/08/05 02:07:58;;;;;;;5.63;5.00;;;15.00;99.90;;;;;;6215804;22;20408;-91
2021/08/05 02:10:38;;;;;;;6.30;5.70;;;15.00;99.90;;;;;;6239044;22;20451;-92
2021/08/05 02:13:13;;;;;;;8.13;5.97;;;14.90;99.90;;;;;;6239588;22;20385;-91
2021/08/05 02:15:45;;;;;;;5.43;5.00;;;14.80;99.90;;;;;;6237852;22;20509;-91
2021/08/05 02:18:13;;;;;;;7.00;5.10;;;14.80;99.90;;;;;;6232532;22;20396;-91
2021/08/05 02:20:42;;;;;;;7.53;5.50;;;14.70;99.90;;;;;;6239368;22;20396;-92
2021/08/05 02:23:11;;;;;;;7.53;5.53;;;14.70;99.90;;;;;;6240328;22;20447;-92
2021/08/05 02:25:42;;;;;;;6.80;5.90;;;14.70;99.90;;;;;;6237810;22;20404;-92
2021/08/05 02:28:09;;;;;;;8.27;6.03;;;14.70;99.90;;;;;;6235910;22;20441;-93
2021/08/05 02:30:37;;;;;;;8.50;6.10;;;14.80;99.90;;;;;;6266307;22;20898;-91
2021/08/05 02:33:04;;;;;;;8.10;5.77;;;14.80;99.90;;;;;;6237919;22;20401;-91
2021/08/05 02:35:36;;;;;;;6.43;5.20;;;14.80;99.90;;;;;;6238593;22;20396;-91
2021/08/05 02:38:03;;;;;;;6.40;5.80;;;14.90;99.90;;;;;;6237062;22;20409;-90
2021/08/05 02:40:37;;;;;;;7.30;5.47;;;15.00;99.90;;;;;;6265348;22;20377;-90
2021/08/05 02:43:14;;;;;;;8.83;5.30;;;15.00;99.90;;;;;;6265855;22;20848;-93
2021/08/05 02:45:44;;;;;;;7.03;5.73;;;14.90;99.90;;;;;;6240232;22;20450;-91
2021/08/05 02:48:12;;;;;;;7.30;5.73;;;14.90;99.90;;;;;;6237097;22;20393;-92
2021/08/05 02:50:39;;;;;;;6.70;5.60;;;14.90;99.90;;;;;;6239731;22;20444;-91
2021/08/05 02:53:05;;;;;;;6.13;5.60;;;14.90;99.90;;;;;;6241307;22;20397;-91
2021/08/05 02:55:32;;;;;;;6.63;5.93;;;14.90;99.90;;;;;;6241915;22;20843;-93
2021/08/05 02:58:01;;;;;;;6.80;6.10;;;14.90;99.90;;;;;;6241151;22;20409;-92
2021/08/05 03:00:30;;;;;;;6.73;6.13;;;14.90;99.90;;;;;;6241724;22;20397;-92
2021/08/05 03:03:22;;;;;;;6.83;6.23;;;14.90;99.90;;;;;;6241417;22;20389;-93
2021/08/05 03:05:50;;;;;;;7.40;5.80;;;14.90;99.90;;;;;;6231427;22;20396;-93
2021/08/05 03:08:15;;;;;;;8.27;5.97;;;15.00;99.90;;;;;;6214356;22;20392;-91
2021/08/05 03:10:48;;;;;;;9.47;6.33;;;15.00;99.90;;;;;;6241503;22;20444;-92
2021/08/05 03:13:16;;;;;;;7.03;6.37;;;15.00;99.90;;;;;;6266712;22;20162;-91
2021/08/05 03:15:42;;;;;;;7.37;6.63;;;15.00;99.90;;;;;;6241674;22;20759;-92
2021/08/05 03:18:07;;;;;;;10.00;7.00;;;15.00;99.90;;;;;;6235216;22;20185;-91
2021/08/05 03:20:33;;;;;;;7.47;6.70;;;15.00;99.90;;;;;;6240417;22;20158;-92
2021/08/05 03:22:59;;;;;;;7.13;6.40;;;15.10;99.90;;;;;;6239063;22;20562;-92
2021/08/05 03:25:26;;;;;;;7.27;6.57;;;15.00;99.90;;;;;;6241570;22;20291;-92
2021/08/05 03:27:55;;;;;;;24.63;8.47;;;15.10;99.90;;;;;;6241656;22;20870;-92
2021/08/05 03:30:20;;;;;;;8.27;7.53;;;15.10;99.90;;;;;;6238597;22;20440;-92
2021/08/05 03:32:46;;;;;;;8.00;7.30;;;15.10;99.90;;;;;;6240242;22;20401;-91
2021/08/05 03:35:15;;;;;;;7.77;7.07;;;15.10;99.90;;;;;;6241334;22;20181;-91
2021/08/05 03:37:41;;;;;;;11.13;7.47;;;15.10;99.90;;;;;;6241781;22;20188;-91
2021/08/05 03:40:07;;;;;;;8.60;7.80;;;15.10;99.90;;;;;;6239990;22;20484;-92
2021/08/05 03:42:33;;;;;;;8.00;7.30;;;15.10;99.90;;;;;;6237992;22;20162;-92
2021/08/05 03:45:04;;;;;;;8.23;7.53;;;15.10;99.90;;;;;;6237583;22;20968;-92
2021/08/05 03:47:33;;;;;;;9.20;8.17;;;15.10;99.90;;;;;;6241288;22;20162;-90
2021/08/05 03:49:59;;;;;;;8.23;7.40;;;15.10;99.90;;;;;;6240946;22;20514;-93
2021/08/05 03:52:35;;;;;;;10.43;7.23;;;15.10;99.90;;;;;;6242621;22;20389;-91
2021/08/05 03:55:02;;;;;;;8.53;7.73;;;15.10;99.90;;;;;;6252012;22;20185;-92
2021/08/05 03:57:35;;;;;;;8.03;7.27;;;15.10;99.90;;;;;;6249498;22;20389;-92
2021/08/05 04:00:04;;;;;;;7.30;6.50;;;15.10;99.90;;;;;;6241952;22;20868;-92
2021/08/05 04:02:29;;;;;;;9.73;7.03;;;15.10;99.90;;;;;;6251751;22;20397;-93
2021/08/05 04:04:55;;;;;;;7.20;6.50;;;15.10;99.90;;;;;;6259450;22;20411;-91
2021/08/05 04:07:21;;;;;;;8.07;6.80;;;15.20;99.90;;;;;;6262291;22;20245;-94
2021/08/05 04:09:50;;;;;;;7.30;6.60;;;15.10;99.90;;;;;;6256507;22;20899;-93
2021/08/05 04:12:16;;;;;;;7.10;6.50;;;15.20;99.90;;;;;;6239772;22;20175;-91
2021/08/05 04:14:41;;;;;;;7.30;6.70;;;15.10;99.90;;;;;;6240352;22;20948;-91
2021/08/05 04:17:10;;;;;;;8.10;7.17;;;15.10;99.90;;;;;;6268993;22;20166;-91
2021/08/05 04:19:38;;;;;;;9.97;6.90;;;15.10;99.90;;;;;;6236153;22;20154;-93
2021/08/05 04:22:03;;;;;;;7.77;6.93;;;15.10;99.90;;;;;;6239775;22;20517;-91
2021/08/05 04:24:29;;;;;;;8.17;7.00;;;15.10;99.90;;;;;;6238944;22;20850;-92
2021/08/05 04:26:57;;;;;;;7.10;6.40;;;15.10;99.90;;;;;;6240335;22;20249;-93
2021/08/05 04:29:23;;;;;;;9.27;6.47;;;15.00;99.90;;;;;;6240109;22;20165;-93
2021/08/05 04:31:51;;;;;;;8.60;7.83;;;15.10;99.90;;;;;;6239586;22;20506;-94
2021/08/05 04:34:20;;;;;;;8.43;7.47;;;15.10;99.90;;;;;;6240053;22;20585;-94
2021/08/05 04:36:57;;;;;;;8.70;7.40;;;15.10;99.90;;;;;;6240078;22;20411;-92
2021/08/05 04:42:15;;;;;;;9.43;7.23;;;15.10;99.90;;;;;;6267711;22;20393;-93
2021/08/05 04:44:41;;;;;;;7.57;6.87;;;15.10;99.90;;;;;;6239687;22;20397;-94
2021/08/05 04:47:18;;;;;;;8.53;7.73;;;15.20;99.90;;;;;;6242048;22;20479;-94
2021/08/05 04:49:44;;;;;;;7.50;6.70;;;15.20;99.90;;;;;;6238252;22;20436;-92
2021/08/05 04:52:10;;;;;;;10.80;7.10;;;15.30;99.90;;;;;;6240831;22;20848;-93
2021/08/05 04:54:37;;;;;;;6.80;5.83;;;15.30;99.90;;;;;;6239333;22;20607;-92
2021/08/05 04:57:27;;;;;;;6.80;6.20;;;15.30;99.90;;;;;;6239958;22;20169;-92
2021/08/05 05:46:06;;;;;;;5.70;5.20;;;15.70;99.90;;;;;;6261700;22;20436;-92
2021/08/05 05:48:33;;;;;;;5.67;5.17;;;15.70;99.90;;;;;;6296929;22;20410;-96
2021/08/05 05:51:29;;;;;;;6.80;5.07;;;15.70;99.90;;;;;;6271196;22;20447;-95
2021/08/05 05:54:06;;;;;;;5.93;5.37;;;15.70;99.90;;;;;;6298829;22;20699;-94
2021/08/05 06:00:21;;;;;;;6.03;5.40;;;15.70;99.90;;;;;;6300215;22;20380;-94
2021/08/05 06:03:05;;;;;;;;;;;;;;;;;;;;;
2021/08/05 06:05:31;;;;;;;5.80;4.90;;;15.70;99.90;;;;;;6298437;22;20241;-93
2021/08/05 06:08:06;;;;;;;5.53;4.80;;;15.70;99.90;;;;;;6300038;22;21050;-94
2021/08/05 06:10:41;;;;;;;6.33;5.30;;;15.70;99.90;;;;;;6269270;22;20568;-93
2021/08/05 06:13:13;;;;;;;8.40;5.40;;;15.60;99.90;;;;;;6270431;22;20446;-93
2021/08/05 06:16:24;;;;;;;8.63;5.23;;;15.50;99.90;;;;;;6297051;22;20397;-92
2021/08/05 06:19:02;;;;;;;6.97;4.90;;;15.50;99.90;;;;;;6298348;22;20685;-94
2021/08/05 06:21:28;;;;;;;5.57;5.07;;;15.60;99.90;;;;;;6280419;22;20460;-93
2021/08/05 06:23:54;;;;;;;6.23;5.63;;;15.50;99.90;;;;;;6238856;22;20397;-93
2021/08/05 06:26:23;;;;;;;6.20;5.70;;;15.50;99.90;;;;;;6241574;22;20392;-93
2021/08/05 06:28:52;;;;;;;5.90;5.20;;;15.50;99.90;;;;;;6242320;22;20412;-91
2021/08/05 06:31:18;;;;;;;5.70;5.10;;;15.50;99.90;;;;;;6241903;22;20472;-93
2021/08/05 06:33:45;;;;;;;5.80;5.30;;;15.50;99.90;;;;;;6244015;22;20397;-94
2021/08/05 06:36:11;;;;;;;10.13;5.30;;;15.60;99.90;;;;;;6244042;22;20742;-93
2021/08/05 06:38:52;;;;;;;7.83;4.77;;;15.60;99.90;;;;;;6243760;22;20546;-95
2021/08/05 06:41:18;;;;;;;6.53;5.03;;;15.70;99.90;;;;;;6241264;22;20482;-92
2021/08/05 06:43:44;;;;;;;5.00;4.60;;;15.90;99.90;;;;;;6242557;22;20400;-94
2021/08/05 06:46:09;;;;;;;5.13;4.30;;;16.10;99.90;;;;;;6243895;22;20224;-94
2021/08/05 06:48:35;;;;;;;6.03;4.40;;;16.30;99.90;;;;;;6242954;22;20163;-93
2021/08/05 06:51:01;;;;;;;4.93;4.10;;;16.60;99.90;;;;;;6243580;22;20677;-93
2021/08/05 06:53:26;;;;;;;4.63;4.07;;;16.80;99.90;;;;;;6243490;22;20193;-93
2021/08/05 06:55:52;;;;;;;5.20;3.97;;;17.00;99.90;;;;;;6245082;22;20166;-94
2021/08/05 06:58:19;;;;;;;4.43;4.03;;;17.20;99.90;;;;;;6244444;22;20154;-95
2021/08/05 07:00:49;;;;;;;6.33;4.67;;;17.20;99.90;;;;;;6256634;22;20163;-96
2021/08/05 07:03:41;;;;;;;6.00;3.80;;;17.00;99.90;;;;;;6256157;22;20391;-96
2021/08/05 07:06:10;;;;;;;4.57;4.17;;;17.10;99.90;;;;;;6245596;22;20412;-95
2021/08/05 07:08:36;;;;;;;6.03;4.10;;;17.20;99.90;;;;;;6240374;22;20397;-95
2021/08/05 07:11:02;;;;;;;5.20;4.10;;;17.40;99.90;;;;;;6252276;22;20445;-96
2021/08/05 07:13:28;;;;;;;3.87;3.47;;;17.50;99.90;;;;;;6261799;22;20164;-96
2021/08/05 07:15:56;;;;;;;4.90;4.40;;;17.60;99.90;;;;;;6254724;22;20424;-96
2021/08/05 07:18:52;;;;;;;5.10;3.83;;;17.70;99.90;;;;;;6263781;22;20185;-96
2021/08/05 07:24:15;;;;;;;4.03;3.73;;;18.00;99.90;;;;;;6282208;22;20444;-96
2021/08/05 07:27:05;;;;;;;7.90;4.23;;;18.00;99.90;;;;;;6270267;22;20420;-96
2021/08/05 07:29:31;;;;;;;6.17;4.50;;;17.90;99.90;;;;;;6260937;22;20380;-96
2021/08/05 07:32:01;;;;;;;6.00;4.43;;;18.10;99.90;;;;;;6260108;22;20440;-96
2021/08/05 07:34:29;;;;;;;4.50;4.10;;;18.40;99.90;;;;;;6276709;22;20451;-95
2021/08/05 07:36:58;;;;;;;4.63;3.80;;;18.50;99.90;;;;;;6331112;22;20406;-93
2021/08/05 07:39:27;;;;;;;4.93;4.53;;;18.60;99.90;;;;;;6326588;22;20412;-95
2021/08/05 07:41:58;;;;;;;4.93;3.80;;;18.40;99.90;;;;;;6281695;22;20690;-96
2021/08/05 07:44:25;;;;;;;4.43;4.03;;;18.60;99.90;;;;;;6252183;22;20926;-95
2021/08/05 07:46:53;;;;;;;6.93;4.17;;;18.40;99.90;;;;;;6249465;22;20408;-96
2021/08/05 07:49:20;;;;;;;4.60;3.77;;;18.40;99.90;;;;;;6267703;22;20444;-93
2021/08/05 07:52:04;;;;;;;4.87;4.23;;;18.40;99.90;;;;;;6241949;22;20440;-93
2021/08/05 07:54:49;;;;;;;;;;;;;;;;;;;;;
2021/08/05 08:03:16;;;;;;;3.30;3.03;;;18.50;99.90;;;;;;6210266;23;20421;-92
2021/08/05 08:11:07;;;;;;;3.30;3.10;;;18.90;99.90;;;;;;6269778;22;20487;-93
2021/08/05 08:20:57;;;;;;;4.10;3.70;;;19.20;99.90;;;;;;6268052;22;20384;-93
2021/08/05 08:24:07;;;;;;;;;;;;;;;;;;;;;
2021/08/05 08:26:35;;;;;;;5.87;3.30;;;19.30;99.90;;;;;;6260224;22;20627;-90
2021/08/05 08:29:02;;;;;;;4.73;3.30;;;19.50;99.90;;;;;;6238910;22;20399;-90
2021/08/05 08:31:28;;;;;;;4.83;3.20;;;19.40;99.90;;;;;;6239627;22;20774;-90
2021/08/05 08:33:54;;;;;;;3.50;3.20;;;19.40;99.90;;;;;;6240793;22;20468;-90
2021/08/05 08:36:19;;;;;;;3.40;3.10;;;19.40;99.90;;;;;;6240845;22;20162;-90
2021/08/05 08:38:45;;;;;;;4.93;3.40;;;19.40;99.90;;;;;;6266836;22;20151;-90
2021/08/05 08:41:19;;;;;;;3.30;3.10;;;19.60;99.90;;;;;;6240839;22;20173;-90
2021/08/05 08:43:51;;;;;;;3.17;2.97;;;19.90;99.90;;;;;;6241038;22;20212;-91
2021/08/05 08:46:25;;;;;;;3.67;3.37;;;19.70;99.90;;;;;;6241250;22;20408;-90
2021/08/05 08:49:00;;;;;;;3.57;3.23;;;19.60;99.90;;;;;;6267823;22;20511;-92
2021/08/05 08:51:29;;;;;;;6.53;3.03;;;19.70;99.90;;;;;;6240220;22;20507;-89
2021/08/05 08:54:23;;;;;;;4.03;3.60;;;19.80;99.90;;;;;;6241593;22;20384;-90
2021/08/05 08:57:10;;;;;;;2.90;2.60;;;19.70;99.90;;;;;;6267501;22;20405;-91
2021/08/05 09:00:07;;;;;;;3.13;2.93;;;19.80;99.90;;;;;;6240090;22;20917;-91
2021/08/05 09:02:46;;;;;;;3.00;2.80;;;19.80;99.90;;;;;;6242589;22;20424;-89
2021/08/05 09:05:12;;;;;;;3.03;2.80;;;19.50;99.90;;;;;;6268657;22;20372;-89
2021/08/05 09:07:46;;;;;;;3.50;3.20;;;19.40;99.90;;;;;;6239648;22;20706;-90
2021/08/05 09:10:15;;;;;;;3.13;2.93;;;19.40;99.90;;;;;;6238625;22;20443;-90
2021/08/05 09:12:47;;;;;;;3.10;2.57;;;19.40;99.90;;;;;;6239669;22;20415;-90
2021/08/05 09:16:03;;;;;;;2.97;2.77;;;19.80;99.90;;;;;;6239743;22;20453;-90
2021/08/05 09:18:40;;;;;;;2.80;2.60;;;20.10;99.90;;;;;;6204786;22;20385;-89
2021/08/05 09:21:41;;;;;;;2.63;2.43;;;19.90;99.90;;;;;;6239294;22;20446;-89
2021/08/05 09:24:21;;;;;;;3.00;2.70;;;20.10;99.90;;;;;;6239067;22;20412;-91
2021/08/05 09:28:02;;;;;;;2.50;2.30;;;20.50;99.90;;;;;;6265553;22;20389;-91
2021/08/05 09:34:05;;;;;;;2.47;2.27;;;20.90;99.90;;;;;;6267398;22;20387;-91
2021/08/05 09:36:45;;;;;;;2.60;2.40;;;21.30;99.90;;;;;;6240612;22;20393;-91
2021/08/05 09:39:24;;;;;;;2.10;1.90;;;21.60;99.90;;;;;;6267037;22;20399;-90
2021/08/05 09:41:58;;;;;;;2.20;2.00;;;21.40;99.90;;;;;;6241063;22;20894;-91
2021/08/05 09:44:28;;;;;;;2.20;2.10;;;21.60;99.90;;;;;;6241196;22;20871;-90
2021/08/05 09:47:11;;;;;;;1.93;1.83;;;21.40;99.90;;;;;;6264954;22;20484;-93
2021/08/05 09:49:52;;;;;;;2.67;2.47;;;21.70;99.90;;;;;;6240865;22;20927;-89
2021/08/05 09:52:34;;;;;;;2.10;1.90;;;22.30;99.90;;;;;;6265526;22;20908;-92
2021/08/05 09:55:05;;;;;;;2.90;2.70;;;22.60;99.90;;;;;;6239382;22;20424;-90
2021/08/05 09:58:25;;;;;;;2.27;2.10;;;22.80;99.90;;;;;;6265714;22;20387;-88
2021/08/05 10:00:53;;;;;;;2.40;2.20;;;22.70;99.30;;;;;;6122891;22;20400;-89
2021/08/05 10:03:34;;;;;;;2.17;2.00;;;22.20;99.90;;;;;;6240337;22;20389;-90
2021/08/05 10:06:02;;;;;;;2.40;2.20;;;21.50;99.90;;;;;;6267636;22;20413;-90
2021/08/05 10:08:38;;;;;;;2.20;1.87;;;21.20;99.90;;;;;;6267482;22;20450;-90
2021/08/05 10:11:05;;;;;;;2.30;2.10;;;20.80;99.90;;;;;;6239115;22;20498;-90
2021/08/05 10:13:46;;;;;;;2.40;2.20;;;20.90;99.90;;;;;;6240277;22;20385;-90
2021/08/05 10:16:13;;;;;;;2.47;2.00;;;21.50;99.90;;;;;;6237813;22;20385;-91
2021/08/05 10:18:42;;;;;;;2.03;1.93;;;21.40;99.90;;;;;;6267525;22;20377;-90
2021/08/05 10:21:48;;;;;;;2.90;1.90;;;21.60;99.90;;;;;;6239327;22;20481;-90
2021/08/05 10:24:21;;;;;;;2.10;1.90;;;21.40;99.90;;;;;;6267590;22;20392;-90
2021/08/05 10:26:48;;;;;;;3.33;2.00;;;21.50;99.90;;;;;;6266757;22;20555;-91
2021/08/05 10:29:16;;;;;;;2.73;1.87;;;22.00;99.90;;;;;;6240209;22;20902;-90
2021/08/05 10:31:44;;;;;;;2.80;2.30;;;22.00;99.90;;;;;;6239933;22;21025;-90
2021/08/05 11:15:52;;;;;;;1.50;1.40;;;22.80;97.30;;;;;;6265306;22;20448;-89
2021/08/05 11:26:11;;;;;;;1.10;1.00;;;23.60;95.50;;;;;;6300099;22;20442;-95
2021/08/05 11:28:55;;;;;;;0.90;0.80;;;24.00;93.70;;;;;;6273159;22;20426;-94
2021/08/05 11:31:42;;;;;;;1.10;1.10;;;24.20;93.30;;;;;;6298886;22;20489;-94
2021/08/05 11:34:12;;;;;;;1.60;1.20;;;24.00;92.70;;;;;;6298523;22;20391;-93
2021/08/05 11:36:44;;;;;;;1.07;1.00;;;23.70;93.30;;;;;;6296337;22;20383;-90
2021/08/05 11:39:50;;;;;;;1.20;1.10;;;22.90;94.00;;;;;;6270831;22;20419;-90
2021/08/05 11:42:21;;;;;;;1.10;1.10;;;23.00;94.50;;;;;;6266579;22;20434;-92
2021/08/05 11:45:02;;;;;;;1.93;1.30;;;23.60;94.10;;;;;;6301047;22;20380;-90
2021/08/05 11:47:34;;;;;;;0.87;0.87;;;23.70;93.30;;;;;;6300327;22;20429;-90
2021/08/05 11:50:02;;;;;;;1.30;1.20;;;23.90;96.10;;;;;;6299748;22;20427;-91
2021/08/05 11:52:28;;;;;;;3.33;2.00;;;24.60;95.80;;;;;;6273075;22;20458;-91
2021/08/05 11:55:03;;;;;;;1.50;1.40;;;25.20;94.20;;;;;;6301015;22;20373;-96
2021/08/05 11:57:46;;;;;;;1.60;1.50;;;24.70;93.80;;;;;;6272937;22;20169;-95
2021/08/05 12:00:24;;;;;;;1.30;1.20;;;23.70;94.60;;;;;;6271971;22;20474;-93
2021/08/05 12:03:13;;;;;;;1.20;1.10;;;23.00;95.50;;;;;;6299542;22;20804;-94
2021/08/05 12:05:49;;;;;;;1.60;1.50;;;23.10;95.60;;;;;;6284660;22;20397;-93
2021/08/05 12:08:19;;;;;;;1.53;1.43;;;23.80;95.20;;;;;;6294153;22;20482;-95
2021/08/05 12:10:45;;;;;;;1.30;1.20;;;24.20;94.70;;;;;;6272180;22;20451;-95
2021/08/05 12:13:25;;;;;;;1.60;1.50;;;24.30;94.00;;;;;;6298401;22;20400;-93
2021/08/05 12:16:27;;;;;;;1.50;1.37;;;24.50;95.20;;;;;;6271902;22;20165;-94
2021/08/05 12:18:53;;;;;;;1.80;1.30;;;24.30;93.60;;;;;;6263918;22;20399;-96
2021/08/05 12:21:19;;;;;;;2.67;1.70;;;24.40;92.80;;;;;;6298672;22;20447;-96
2021/08/05 12:23:52;;;;;;;2.57;1.30;;;24.40;93.30;;;;;;6272063;22;20384;-96
2021/08/05 12:26:25;;;;;;;1.40;1.30;;;25.30;93.50;;;;;;6273142;22;20404;-94
2021/08/05 12:28:52;;;;;;;1.80;1.30;;;24.60;92.80;;;;;;6298074;22;20530;-96
2021/08/05 12:31:21;;;;;;;1.70;1.60;;;24.40;95.10;;;;;;6301059;22;20431;-96
2021/08/05 12:33:51;;;;;;;1.60;1.50;;;24.10;94.50;;;;;;6278179;22;20599;-96
2021/08/05 12:37:03;;;;;;;1.53;1.43;;;23.90;94.90;;;;;;6277665;22;20545;-96
2021/08/05 12:39:29;;;;;;;1.77;1.67;;;23.90;94.60;;;;;;6292295;22;20408;-96
2021/08/05 12:41:56;;;;;;;1.37;1.27;;;24.60;94.00;;;;;;6306349;22;20399;-96
2021/08/05 12:44:33;;;;;;;1.60;1.50;;;24.50;93.90;;;;;;6300994;22;20599;-93
2021/08/05 12:47:04;;;;;;;2.00;1.90;;;23.70;95.10;;;;;;6274182;22;20404;-95
2021/08/05 12:49:36;;;;;;;2.57;1.53;;;22.80;95.50;;;;;;6276457;22;20479;-95
2021/08/05 12:52:09;;;;;;;1.67;1.57;;;22.30;96.60;;;;;;6273273;22;20439;-96
2021/08/05 12:54:35;;;;;;;1.47;1.37;;;22.30;96.60;;;;;;6301315;22;20376;-95
2021/08/05 12:57:13;;;;;;;1.60;1.50;;;22.10;96.20;;;;;;6301553;22;20400;-94
2021/08/05 12:59:45;;;;;;;1.60;1.50;;;22.30;96.30;;;;;;6272443;22;20164;-93
2021/08/05 13:02:16;;;;;;;1.60;1.50;;;22.90;97.50;;;;;;6272288;22;20396;-96
2021/08/05 13:04:54;;;;;;;1.83;1.50;;;23.20;96.60;;;;;;6273535;22;20446;-95
2021/08/05 13:07:19;;;;;;;2.30;1.70;;;22.40;99.80;;;;;;6271869;22;20396;-94
2021/08/05 13:09:53;;;;;;;3.30;2.20;;;21.80;99.90;;;;;;6297643;22;20461;-92
2021/08/05 13:12:23;;;;;;;2.40;1.70;;;21.50;99.90;;;;;;6271509;22;20169;-93
2021/08/05 13:14:48;;;;;;;2.43;2.23;;;21.30;99.90;;;;;;6298622;22;20391;-92
2021/08/05 13:17:17;;;;;;;1.50;1.40;;;20.90;99.90;;;;;;6298607;22;20392;-92
2021/08/05 13:20:03;;;;;;;1.87;1.77;;;21.00;99.90;;;;;;6299265;22;20153;-93
2021/08/05 13:22:42;;;;;;;1.60;1.50;;;21.70;99.90;;;;;;6273013;22;20423;-94
2021/08/05 13:25:20;;;;;;;2.17;1.97;;;22.10;99.90;;;;;;6272689;22;20482;-91
2021/08/05 13:28:12;;;;;;;3.07;1.40;;;22.30;99.90;;;;;;6272263;22;20404;-92
2021/08/05 13:30:44;;;;;;;3.07;1.47;;;22.40;99.90;;;;;;6272814;22;20424;-92
2021/08/05 13:33:29;;;;;;;1.60;1.50;;;22.40;99.90;;;;;;6271033;22;20871;-93
2021/08/05 13:35:57;;;;;;;1.63;1.53;;;22.00;99.90;;;;;;6299284;22;20453;-93
2021/08/05 13:38:23;;;;;;;1.50;1.40;;;21.30;99.90;;;;;;6273269;22;20388;-93
2021/08/05 13:40:57;;;;;;;1.97;1.50;;;21.10;99.90;;;;;;6299044;22;20400;-95
2021/08/05 13:43:26;;;;;;;1.50;1.40;;;20.90;99.90;;;;;;6299807;22;20214;-96
2021/08/05 13:45:52;;;;;;;1.90;1.50;;;20.60;99.90;;;;;;6303559;22;20973;-95
2021/08/05 13:48:17;;;;;;;1.57;1.47;;;20.60;99.90;;;;;;6301037;22;20771;-94
2021/08/05 13:50:44;;;;;;;1.67;1.53;;;20.70;99.90;;;;;;6298415;22;20579;-95
2021/08/05 13:53:15;;;;;;;1.70;1.60;;;20.50;99.90;;;;;;6306454;22;20705;-96
2021/08/05 13:55:49;;;;;;;1.90;1.27;;;20.20;99.90;;;;;;6319190;22;20391;-96
2021/08/05 13:58:15;;;;;;;1.67;1.57;;;19.90;99.90;;;;;;6306671;22;20502;-95
2021/08/05 14:00:40;;;;;;;1.50;1.10;;;19.80;99.90;;;;;;6303362;22;20407;-96
2021/08/05 14:03:06;;;;;;;1.77;1.40;;;19.80;99.90;;;;;;6302812;22;20240;-95
2021/08/05 14:05:32;;;;;;;1.80;1.70;;;19.60;99.90;;;;;;6297641;22;20174;-91
2021/08/05 14:07:58;;;;;;;2.03;1.33;;;19.60;99.90;;;;;;6294852;22;20935;-93
2021/08/05 14:10:24;;;;;;;1.57;1.07;;;19.60;99.90;;;;;;6264777;22;20482;-92
2021/08/05 14:12:51;;;;;;;1.20;1.10;;;19.70;99.90;;;;;;6294666;22;20161;-92
2021/08/05 14:15:17;;;;;;;3.00;1.23;;;20.00;99.90;;;;;;6295202;22;20162;-93
2021/08/05 14:17:43;;;;;;;1.60;1.50;;;20.30;99.90;;;;;;6298789;22;20388;-94
2021/08/05 14:20:13;;;;;;;3.67;1.37;;;20.60;99.90;;;;;;6276603;22;20430;-93
2021/08/05 14:22:40;;;;;;;1.83;1.70;;;20.80;99.90;;;;;;6322149;22;20434;-93
2021/08/05 14:25:06;;;;;;;2.00;1.73;;;21.00;99.90;;;;;;6291629;22;20457;-93
2021/08/05 14:27:32;;;;;;;1.57;1.30;;;20.90;99.90;;;;;;6275702;22;20415;-93
2021/08/05 14:29:58;;;;;;;2.60;1.50;;;21.50;99.90;;;;;;6300731;22;20840;-93
2021/08/05 14:32:23;;;;;;;2.27;1.27;;;22.60;99.90;;;;;;6314701;22;20157;-94
2021/08/05 14:34:49;;;;;;;1.30;1.20;;;23.50;99.90;;;;;;6322961;22;20205;-95
2021/08/05 14:37:14;;;;;;;2.10;1.10;;;23.60;98.40;;;;;;6319645;22;20142;-96
2021/08/05 14:39:40;;;;;;;1.03;1.03;;;23.20;99.90;;;;;;6306029;22;20154;-95
2021/08/05 14:42:06;;;;;;;1.40;1.30;;;22.60;99.90;;;;;;6276844;22;20664;-95
2021/08/05 14:44:32;;;;;;;1.20;1.10;;;21.90;99.90;;;;;;6300317;22;20504;-94
2021/08/05 14:46:58;;;;;;;1.70;1.40;;;22.00;99.90;;;;;;6301332;22;20419;-94
2021/08/05 14:49:23;;;;;;;0.90;0.90;;;21.90;99.90;;;;;;6305292;22;20252;-94
2021/08/05 14:51:51;;;;;;;0.70;0.70;;;22.00;99.90;;;;;;6302287;22;20688;-95
2021/08/05 14:54:18;;;;;;;1.67;1.17;;;21.90;99.90;;;;;;6274702;22;20158;-95
2021/08/05 14:56:44;;;;;;;1.40;1.03;;;22.00;99.90;;;;;;6275657;22;20749;-95
2021/08/05 14:59:10;;;;;;;1.20;1.10;;;22.00;99.90;;;;;;6272736;22;20537;-96
2021/08/05 15:01:41;;;;;;;1.10;1.00;;;22.10;99.90;;;;;;6271650;22;20398;-95
2021/08/05 15:04:07;;;;;;;2.17;1.30;;;23.00;99.90;;;;;;6271656;22;20739;-95
2021/08/05 15:06:33;;;;;;;1.00;1.00;;;24.00;98.10;;;;;;6269101;22;20384;-94
2021/08/05 15:09:00;;;;;;;1.07;0.90;;;24.30;96.70;;;;;;6268868;22;20488;-92
2021/08/05 15:11:25;;;;;;;1.03;0.87;;;23.40;96.30;;;;;;6268756;22;20189;-94
2021/08/05 15:13:51;;;;;;;1.47;1.37;;;22.70;98.30;;;;;;6271060;22;20399;-95
2021/08/05 15:16:17;;;;;;;1.80;1.27;;;21.10;99.90;;;;;;6295863;22;20600;-95
2021/08/05 15:18:43;;;;;;;1.80;1.47;;;20.30;99.90;;;;;;6260906;22;20165;-95
2021/08/05 15:21:09;;;;;;;1.40;1.30;;;19.60;99.90;;;;;;6294575;22;20396;-96
2021/08/05 15:23:35;;;;;;;1.13;1.00;;;19.40;99.90;;;;;;6269686;22;20400;-93
2021/08/05 15:26:01;;;;;;;1.20;1.10;;;19.30;99.90;;;;;;6297418;22;20999;-94
2021/08/05 15:28:27;;;;;;;1.40;1.30;;;19.20;99.90;;;;;;6269680;22;20211;-94